Time;durP1;ratioP1;P1;durP2;ratioP2;P2;SDS_P1;SDS_P2;PMS_P1;PMS_P2;Temp;Humidity;BMP_temperature;BMP_pressure;BME280_temperature;BME280_humidity;BME280_pressure;Samples;Min_cycle;Max_cycle;Signal;HPM_P1;HPM_P2
2022/10/27 00:00:27;;;;;;;10.73;7.85;;;;;;;13.04;66.59;95929.88;5051989;28;21033;-75
2022/10/27 00:02:53;;;;;;;9.52;7.43;;;;;;;12.99;67.09;95935.09;5051985;28;20765;-75
2022/10/27 00:05:21;;;;;;;9.27;7.38;;;;;;;12.96;66.94;95937.75;5052299;28;20260;-74
2022/10/27 00:07:48;;;;;;;13.50;7.07;;;;;;;12.94;67.51;95932.69;5052066;28;20230;-74
2022/10/27 00:10:15;;;;;;;7.10;5.80;;;;;;;13.01;66.83;95940.16;5050747;28;20211;-74
2022/10/27 00:12:43;;;;;;;10.70;6.32;;;;;;;13.03;66.50;95936.69;5052317;28;20206;-74
2022/10/27 00:15:11;;;;;;;7.45;5.93;;;;;;;13.09;66.94;95938.22;5051803;28;20206;-74
2022/10/27 00:17:38;;;;;;;8.00;6.63;;;;;;;13.09;66.46;95930.56;5051532;28;20740;-74
2022/10/27 00:20:06;;;;;;;11.02;6.35;;;;;;;12.74;68.08;95940.06;5051195;28;20306;-75
2022/10/27 00:22:33;;;;;;;7.78;5.88;;;;;;;12.38;69.20;95946.16;5051374;28;20302;-74
2022/10/27 00:24:59;;;;;;;10.68;7.03;;;;;;;11.98;71.39;95952.28;5051749;28;20210;-75
2022/10/27 00:27:27;;;;;;;6.95;6.32;;;;;;;11.78;72.09;95939.19;5050854;28;20206;-74
2022/10/27 00:29:55;;;;;;;10.07;6.65;;;;;;;11.68;72.35;95953.81;5051797;28;20194;-75
2022/10/27 00:32:22;;;;;;;6.68;6.00;;;;;;;11.79;72.32;95951.91;5052357;28;20202;-74
2022/10/27 00:34:49;;;;;;;12.90;6.32;;;;;;;12.33;70.63;95953.09;5049745;28;20327;-74
2022/10/27 00:37:15;;;;;;;8.00;5.82;;;;;;;12.60;69.52;95957.47;5051274;28;20206;-74
2022/10/27 00:39:42;;;;;;;9.65;6.88;;;;;;;12.72;68.67;95954.56;5050966;28;20288;-74
2022/10/27 00:42:12;;;;;;;6.20;5.32;;;;;;;12.73;68.88;95956.25;5051789;28;20304;-73
2022/10/27 00:44:40;;;;;;;6.30;5.70;;;;;;;12.74;68.60;95955.38;5051793;28;20302;-73
2022/10/27 00:47:24;;;;;;;5.47;5.07;;;;;;;12.73;68.30;95956.25;5050679;28;20260;-73
2022/10/27 00:49:55;;;;;;;7.32;5.05;;;;;;;12.77;68.14;95965.50;5051125;28;20226;-73
2022/10/27 00:52:29;;;;;;;7.88;5.50;;;;;;;12.77;67.89;95959.56;5052389;28;20318;-73
2022/10/27 00:55:00;;;;;;;8.43;4.75;;;;;;;12.68;68.31;95965.72;5054649;28;20672;-74
2022/10/27 00:57:28;;;;;;;6.57;5.00;;;;;;;12.67;67.86;95960.66;5055363;28;20214;-73
2022/10/27 00:59:56;;;;;;;12.90;5.32;;;;;;;12.69;67.53;95964.84;5054174;28;20719;-73
2022/10/27 01:02:24;;;;;;;5.85;5.25;;;;;;;12.76;68.02;95963.81;5054845;28;20264;-73
2022/10/27 01:04:55;;;;;;;6.57;5.15;;;;;;;12.88;66.97;95968.56;5054198;28;20214;-73
2022/10/27 01:07:23;;;;;;;7.03;5.28;;;;;;;12.78;66.74;95967.16;5054861;28;20218;-73
2022/10/27 01:09:51;;;;;;;8.43;5.03;;;;;;;12.63;67.47;95967.56;5054528;28;20232;-73
2022/10/27 01:12:18;;;;;;;8.35;4.85;;;;;;;12.76;67.20;95979.13;5054990;28;20753;-74
2022/10/27 01:14:45;;;;;;;6.05;5.18;;;;;;;12.71;66.79;95980.97;5054596;28;20218;-73
2022/10/27 01:17:24;;;;;;;5.13;4.53;;;;;;;12.69;67.09;95977.59;5055347;28;20267;-73
2022/10/27 01:20:38;;;;;;;9.13;4.80;;;;;;;12.69;66.78;95980.16;5054765;28;20275;-74
2022/10/27 01:23:13;;;;;;;7.50;4.50;;;;;;;12.18;68.29;95983.19;5052775;28;20265;-72
2022/10/27 01:26:15;;;;;;;6.53;4.97;;;;;;;11.93;69.33;95988.06;5054951;28;20226;-74
2022/10/27 01:29:13;;;;;;;5.85;4.78;;;;;;;11.86;69.95;95989.09;5054506;28;20271;-73
2022/10/27 01:31:48;;;;;;;11.95;5.15;;;;;;;11.90;69.49;95994.94;5054323;28;20234;-73
2022/10/27 01:34:21;;;;;;;12.82;5.40;;;;;;;11.71;70.60;95991.13;5054774;28;20291;-73
2022/10/27 01:36:54;;;;;;;7.38;4.80;;;;;;;11.59;71.01;95995.63;5055388;28;20206;-73
2022/10/27 01:39:28;;;;;;;5.40;4.90;;;;;;;11.58;71.32;95986.31;5053227;28;20226;-72
2022/10/27 01:42:01;;;;;;;8.02;4.45;;;;;;;11.64;70.81;95981.94;5054259;28;20203;-73
2022/10/27 01:44:31;;;;;;;4.60;4.20;;;;;;;11.78;70.26;95978.25;5054584;28;20207;-73
2022/10/27 01:47:01;;;;;;;5.90;5.28;;;;;;;11.36;72.83;95980.03;5054794;28;20233;-74
2022/10/27 01:49:34;;;;;;;6.30;5.10;;;;;;;11.31;73.08;95976.75;5054729;28;20207;-74
2022/10/27 01:52:05;;;;;;;8.25;6.15;;;;;;;11.45;72.59;95977.25;5054570;28;20264;-73
2022/10/27 01:54:33;;;;;;;6.03;5.28;;;;;;;11.60;72.63;95973.56;5054526;28;20687;-73
2022/10/27 01:57:16;;;;;;;5.85;5.03;;;;;;;11.77;71.59;95970.63;5054967;28;20206;-73
2022/10/27 01:59:58;;;;;;;8.27;6.10;;;;;;;11.42;73.64;95972.25;5053336;28;21574;-74
2022/10/27 02:02:37;;;;;;;6.55;5.75;;;;;;;11.15;75.58;95963.50;5054759;28;20206;-75
2022/10/27 02:05:07;;;;;;;8.07;5.47;;;;;;;11.33;75.05;95969.09;5053494;28;21379;-73
2022/10/27 02:07:44;;;;;;;10.23;7.03;;;;;;;11.17;75.63;95963.47;5054859;28;20230;-73
2022/10/27 02:10:17;;;;;;;7.43;6.28;;;;;;;11.06;76.45;95967.97;5053817;28;20479;-75
2022/10/27 02:12:48;;;;;;;6.70;6.10;;;;;;;11.22;75.87;95959.97;5053843;28;20207;-75
2022/10/27 02:15:24;;;;;;;8.63;6.43;;;;;;;11.38;75.38;95962.19;5053642;28;20323;-75
2022/10/27 02:17:57;;;;;;;8.38;6.95;;;;;;;11.53;74.94;95970.31;5054681;28;20267;-75
2022/10/27 02:20:28;;;;;;;6.72;6.13;;;;;;;11.96;73.36;95973.56;5052926;28;20318;-74
2022/10/27 02:22:56;;;;;;;6.55;5.95;;;;;;;12.24;71.46;95985.59;5054195;28;20279;-74
2022/10/27 02:25:29;;;;;;;7.53;5.50;;;;;;;12.24;71.13;95977.94;5053674;28;20281;-73
2022/10/27 02:28:01;;;;;;;12.23;5.93;;;;;;;12.15;71.81;95978.16;5053456;28;20296;-75
2022/10/27 02:30:29;;;;;;;7.43;6.70;;;;;;;12.02;72.00;95974.28;5053942;28;21860;-74
2022/10/27 02:32:58;;;;;;;6.80;5.45;;;;;;;11.94;72.64;95981.25;5054249;28;20206;-74
2022/10/27 02:35:25;;;;;;;13.13;6.30;;;;;;;12.08;72.36;95979.22;5053517;28;20210;-73
2022/10/27 02:37:52;;;;;;;6.50;5.80;;;;;;;12.32;71.17;95985.41;5052797;28;20209;-73
2022/10/27 02:40:19;;;;;;;6.72;5.07;;;;;;;12.37;70.51;95987.84;5052959;28;20342;-74
2022/10/27 02:42:46;;;;;;;9.95;5.45;;;;;;;12.47;70.54;95986.72;5053903;28;20590;-74
2022/10/27 02:45:12;;;;;;;10.25;5.57;;;;;;;12.53;69.49;95989.09;5054254;28;20202;-74
2022/10/27 02:47:39;;;;;;;6.50;5.43;;;;;;;12.57;69.64;95990.69;5053917;28;20283;-73
2022/10/27 02:50:08;;;;;;;8.77;4.50;;;;;;;12.63;69.48;95994.78;5053145;28;20284;-73
2022/10/27 02:52:35;;;;;;;5.70;5.20;;;;;;;12.37;69.78;96005.69;5053768;28;20285;-74
2022/10/27 02:55:01;;;;;;;5.95;5.40;;;;;;;12.36;69.99;95994.66;5053589;28;20198;-74
2022/10/27 02:57:28;;;;;;;6.90;5.60;;;;;;;12.43;70.08;96000.41;5052981;28;20492;-72
2022/10/27 02:59:55;;;;;;;5.82;5.32;;;;;;;12.36;70.24;96001.47;5053076;28;20257;-74
2022/10/27 03:02:22;;;;;;;6.55;5.47;;;;;;;12.12;70.63;95998.66;5052396;28;20237;-75
2022/10/27 03:04:49;;;;;;;7.63;5.80;;;;;;;12.21;70.94;96010.31;5053387;28;20224;-74
2022/10/27 03:07:17;;;;;;;10.00;6.43;;;;;;;12.24;70.71;96005.97;5052946;28;20230;-75
2022/10/27 03:09:44;;;;;;;8.95;7.35;;;;;;;12.23;70.45;96009.41;5054630;28;20203;-75
2022/10/27 03:12:12;;;;;;;11.52;5.75;;;;;;;11.96;70.64;96024.53;5052298;28;20214;-74
2022/10/27 03:14:39;;;;;;;6.55;5.78;;;;;;;11.77;71.57;96021.56;5053851;28;20273;-74
2022/10/27 03:17:06;;;;;;;8.98;6.47;;;;;;;11.58;72.49;96019.41;5053784;28;20202;-74
2022/10/27 03:19:32;;;;;;;9.13;6.45;;;;;;;11.66;72.13;96021.78;5053497;28;20253;-74
2022/10/27 03:21:59;;;;;;;10.27;6.55;;;;;;;11.59;72.66;96021.09;5052580;28;20214;-74
2022/10/27 03:24:27;;;;;;;12.52;5.70;;;;;;;11.69;72.30;96025.97;5053776;28;20676;-75
2022/10/27 03:26:54;;;;;;;8.05;6.40;;;;;;;11.49;73.09;96029.78;5053246;28;20668;-76
2022/10/27 03:29:22;;;;;;;10.95;6.55;;;;;;;11.54;72.97;96027.16;5052548;28;20195;-75
2022/10/27 03:31:49;;;;;;;6.65;6.05;;;;;;;11.77;72.30;96013.94;5050837;28;20313;-75
2022/10/27 03:34:15;;;;;;;7.53;6.75;;;;;;;11.70;72.67;96017.44;5052092;28;20260;-76
2022/10/27 03:36:42;;;;;;;8.52;6.35;;;;;;;11.69;72.88;96025.97;5051296;28;20285;-75
2022/10/27 03:39:10;;;;;;;6.35;5.75;;;;;;;11.87;72.16;96021.34;5052667;28;20210;-75
2022/10/27 03:41:38;;;;;;;7.35;6.45;;;;;;;12.06;71.37;96026.81;5051352;28;20705;-76
2022/10/27 03:44:05;;;;;;;12.88;7.07;;;;;;;12.23;70.87;96017.06;5051367;28;20704;-75
2022/10/27 03:46:31;;;;;;;9.15;6.50;;;;;;;12.08;70.93;96014.88;5052523;28;20651;-75
2022/10/27 03:48:58;;;;;;;28.38;15.73;;;;;;;11.38;74.02;96016.47;5052820;28;20256;-76
2022/10/27 03:51:25;;;;;;;61.72;35.63;;;;;;;11.01;75.81;96020.63;5052439;28;20745;-76
2022/10/27 03:53:51;;;;;;;19.48;12.73;;;;;;;11.00;76.17;96026.59;5052132;28;20202;-75
2022/10/27 03:56:18;;;;;;;8.63;7.15;;;;;;;11.08;76.14;96027.28;5052646;28;20702;-75
2022/10/27 03:58:46;;;;;;;13.18;7.45;;;;;;;11.00;76.53;96029.13;5052458;28;20202;-75
2022/10/27 04:01:13;;;;;;;11.07;7.43;;;;;;;11.06;76.16;96023.94;5051734;28;21208;-73
2022/10/27 04:03:39;;;;;;;10.55;6.93;;;;;;;11.17;76.21;96022.81;5052644;28;20209;-74
2022/10/27 04:06:06;;;;;;;8.00;6.88;;;;;;;11.17;76.14;96029.63;5052174;28;21463;-75
2022/10/27 04:08:33;;;;;;;8.68;6.70;;;;;;;11.28;75.58;96020.06;5051799;28;20230;-73
2022/10/27 04:11:00;;;;;;;8.93;6.93;;;;;;;11.54;74.76;96022.91;5052470;28;20202;-73
2022/10/27 04:13:26;;;;;;;8.00;7.05;;;;;;;11.88;73.63;96024.69;5051956;28;20198;-74
2022/10/27 04:15:55;;;;;;;72.53;37.38;;;;;;;11.99;72.96;96025.28;5052848;28;20199;-74
2022/10/27 04:18:22;;;;;;;43.83;23.33;;;;;;;12.07;72.46;96028.50;5052695;28;20213;-74
2022/10/27 04:20:48;;;;;;;17.08;9.85;;;;;;;11.99;72.67;96029.53;5052168;28;20222;-78
2022/10/27 04:23:15;;;;;;;14.05;7.05;;;;;;;11.94;72.98;96032.19;5051394;28;20657;-73
2022/10/27 04:25:44;;;;;;;12.80;8.32;;;;;;;11.98;73.07;96033.81;5052804;28;20256;-73
2022/10/27 04:28:10;;;;;;;43.25;23.65;;;;;;;12.02;72.88;96040.50;5051087;28;20282;-74
2022/10/27 04:30:37;;;;;;;36.80;18.63;;;;;;;12.08;72.39;96035.28;5052693;28;20643;-74
2022/10/27 04:33:05;;;;;;;18.55;9.38;;;;;;;12.27;71.51;96036.50;5051657;28;20213;-73
2022/10/27 04:35:32;;;;;;;16.73;8.77;;;;;;;12.12;72.17;96036.03;5051678;28;20696;-75
2022/10/27 04:37:59;;;;;;;33.80;14.52;;;;;;;11.94;72.82;96039.84;5051909;28;20897;-76
2022/10/27 04:40:26;;;;;;;62.03;32.53;;;;;;;11.95;72.67;96046.59;5051971;28;20236;-75
2022/10/27 04:42:52;;;;;;;62.40;36.55;;;;;;;11.78;73.09;96036.81;5052047;28;20202;-74
2022/10/27 04:45:19;;;;;;;53.55;28.27;;;;;;;11.35;75.00;96041.97;5051695;28;20203;-75
2022/10/27 04:47:46;;;;;;;30.80;12.70;;;;;;;11.16;76.66;96045.75;5052032;28;20198;-75
2022/10/27 04:50:15;;;;;;;19.08;10.80;;;;;;;10.96;77.41;96043.59;5051252;28;20633;-75
2022/10/27 04:52:42;;;;;;;24.45;10.10;;;;;;;10.73;79.22;96046.59;5051644;28;20198;-75
2022/10/27 04:55:10;;;;;;;21.30;9.40;;;;;;;10.67;79.40;96045.84;5053398;28;20214;-74
2022/10/27 04:57:36;;;;;;;15.48;9.07;;;;;;;11.16;77.72;96046.59;5052203;28;20206;-73
2022/10/27 05:00:04;;;;;;;16.98;9.75;;;;;;;11.43;76.46;96050.28;5051449;28;21120;-74
2022/10/27 05:02:30;;;;;;;19.73;9.45;;;;;;;11.47;76.05;96040.88;5051999;28;20205;-74
2022/10/27 05:04:57;;;;;;;23.67;12.07;;;;;;;11.48;76.03;96053.56;5050524;28;20202;-74
2022/10/27 05:07:26;;;;;;;48.10;22.63;;;;;;;11.43;75.94;96054.53;5051342;28;20661;-74
2022/10/27 05:09:52;;;;;;;66.20;31.85;;;;;;;11.23;76.18;96065.13;5051592;28;20703;-75
2022/10/27 05:12:19;;;;;;;34.63;17.92;;;;;;;11.12;76.91;96070.44;5051132;28;20259;-76
2022/10/27 05:14:46;;;;;;;60.55;22.23;;;;;;;11.22;76.52;96071.06;5052092;28;21732;-74
2022/10/27 05:17:13;;;;;;;69.10;29.25;;;;;;;11.31;76.24;96070.06;5051185;28;20207;-74
2022/10/27 05:19:39;;;;;;;92.32;44.50;;;;;;;11.39;75.94;96079.19;5051851;28;20203;-74
2022/10/27 05:22:06;;;;;;;88.50;40.35;;;;;;;11.45;75.26;96089.25;5050306;28;20240;-73
2022/10/27 05:24:35;;;;;;;75.95;36.53;;;;;;;11.37;75.21;96091.16;5051129;28;20210;-73
2022/10/27 05:27:05;;;;;;;106.63;47.28;;;;;;;11.39;74.99;96099.56;5050874;28;20981;-74
2022/10/27 05:29:32;;;;;;;96.90;42.13;;;;;;;11.14;76.08;96109.38;5052184;28;20210;-73
2022/10/27 05:32:00;;;;;;;57.30;23.40;;;;;;;11.09;75.91;96111.19;5050339;28;20820;-73
2022/10/27 05:34:27;;;;;;;40.63;17.25;;;;;;;11.21;75.32;96112.66;5051096;28;20230;-75
2022/10/27 05:36:54;;;;;;;47.28;22.75;;;;;;;11.18;75.80;96110.16;5049908;28;20753;-73
2022/10/27 05:39:20;;;;;;;40.63;23.85;;;;;;;11.24;75.73;96118.53;5052858;28;20233;-74
2022/10/27 05:41:48;;;;;;;54.00;25.80;;;;;;;11.54;74.09;96129.81;5053772;28;21544;-74
2022/10/27 05:44:15;;;;;;;66.07;30.95;;;;;;;11.79;73.37;96129.34;5054121;28;20793;-74
2022/10/27 05:46:42;;;;;;;41.85;21.85;;;;;;;11.52;74.13;96125.63;5054091;28;20214;-74
2022/10/27 05:49:08;;;;;;;29.85;14.82;;;;;;;11.11;76.43;96136.63;5053397;28;20284;-73
2022/10/27 05:51:35;;;;;;;20.73;12.30;;;;;;;11.45;75.03;96139.34;5053184;28;20268;-74
2022/10/27 05:54:02;;;;;;;27.02;12.77;;;;;;;11.50;75.50;96143.47;5054539;28;20645;-74
2022/10/27 05:56:29;;;;;;;22.80;12.45;;;;;;;11.58;74.61;96140.78;5053827;28;20210;-74
2022/10/27 05:58:57;;;;;;;24.73;11.48;;;;;;;11.64;74.85;96144.88;5053884;28;20203;-74
2022/10/27 06:01:24;;;;;;;29.60;12.38;;;;;;;11.47;75.28;96140.97;5053485;28;20326;-74
2022/10/27 06:03:50;;;;;;;24.50;11.50;;;;;;;11.64;74.77;96155.06;5053573;28;20645;-73
2022/10/27 06:06:17;;;;;;;23.15;9.85;;;;;;;12.21;71.58;96153.03;5052752;28;20249;-73
2022/10/27 06:08:44;;;;;;;18.65;9.52;;;;;;;12.81;69.92;96148.19;5053009;28;20230;-76
2022/10/27 06:11:11;;;;;;;25.27;10.82;;;;;;;13.19;68.32;96151.50;5053078;28;20202;-74
2022/10/27 06:13:38;;;;;;;24.48;10.45;;;;;;;14.15;64.84;96149.59;5054302;28;20212;-74
2022/10/27 06:16:07;;;;;;;23.08;8.27;;;;;;;15.40;61.27;96150.66;5054961;28;20210;-74
2022/10/27 06:18:33;;;;;;;9.20;8.05;;;;;;;15.55;59.47;96159.53;5053991;28;20213;-74
2022/10/27 06:21:00;;;;;;;14.30;7.93;;;;;;;15.52;59.27;96157.09;5052844;28;20230;-74
2022/10/27 06:23:27;;;;;;;13.07;7.07;;;;;;;15.25;59.22;96158.88;5053975;28;20242;-73
2022/10/27 06:25:55;;;;;;;17.35;7.38;;;;;;;14.81;61.52;96163.78;5054220;28;20214;-73
2022/10/27 06:28:22;;;;;;;7.30;6.60;;;;;;;14.70;61.73;96160.72;5053971;28;20198;-74
2022/10/27 06:30:48;;;;;;;11.88;7.65;;;;;;;14.39;62.33;96159.97;5053701;28;20482;-74
2022/10/27 06:33:16;;;;;;;10.85;7.63;;;;;;;14.50;62.27;96163.91;5053878;28;20256;-74
2022/10/27 06:35:52;;;;;;;14.43;7.53;;;;;;;14.95;60.76;96159.03;5053719;28;20206;-75
2022/10/27 06:38:19;;;;;;;12.10;6.90;;;;;;;15.10;60.41;96170.47;5052908;28;20213;-73
2022/10/27 06:40:46;;;;;;;13.75;6.97;;;;;;;15.07;60.92;96169.75;5053285;28;20230;-74
2022/10/27 06:43:13;;;;;;;11.70;7.85;;;;;;;15.34;59.49;96171.38;5054163;28;20194;-75
2022/10/27 06:45:41;;;;;;;14.75;8.27;;;;;;;15.50;59.44;96175.06;5054287;28;20249;-74
2022/10/27 06:48:10;;;;;;;17.63;8.35;;;;;;;15.41;59.48;96177.09;5053292;28;20292;-74
2022/10/27 06:50:38;;;;;;;14.52;7.32;;;;;;;15.81;58.40;96176.56;5053831;28;20261;-75
2022/10/27 06:53:05;;;;;;;16.58;6.88;;;;;;;16.54;56.07;96171.22;5053862;28;20210;-73
2022/10/27 06:55:31;;;;;;;17.23;7.38;;;;;;;17.26;53.84;96162.28;5054461;28;20263;-75
2022/10/27 06:57:58;;;;;;;17.13;8.45;;;;;;;17.39;53.45;96167.72;5052432;28;20268;-75
2022/10/27 07:00:26;;;;;;;12.85;7.55;;;;;;;17.38;53.64;96165.22;5053566;28;20218;-75
2022/10/27 07:02:52;;;;;;;14.90;7.72;;;;;;;17.22;53.96;96165.06;5052570;28;20913;-73
2022/10/27 07:05:20;;;;;;;12.50;7.93;;;;;;;17.14;53.95;96174.81;5050844;28;21045;-73
2022/10/27 07:07:50;;;;;;;12.02;6.90;;;;;;;16.94;54.48;96178.19;5052385;28;20222;-72
2022/10/27 07:10:17;;;;;;;9.57;7.03;;;;;;;16.78;55.11;96188.25;5051200;28;20206;-73
2022/10/27 07:12:52;;;;;;;12.02;7.65;;;;;;;16.28;56.26;96185.91;5051641;28;20675;-73
2022/10/27 07:15:19;;;;;;;8.32;6.97;;;;;;;16.13;56.39;96191.59;5051233;28;20202;-76
2022/10/27 07:17:46;;;;;;;15.65;8.68;;;;;;;16.19;55.87;96191.38;5053677;28;20705;-75
2022/10/27 07:20:12;;;;;;;14.23;7.40;;;;;;;16.22;56.01;96191.25;5051245;28;20223;-74
2022/10/27 07:22:40;;;;;;;9.25;6.10;;;;;;;16.11;56.17;96193.38;5049623;28;20242;-77
2022/10/27 07:25:09;;;;;;;7.43;6.47;;;;;;;17.06;54.02;96198.25;5050865;28;20202;-74
2022/10/27 07:27:36;;;;;;;11.43;7.05;;;;;;;17.81;51.44;96195.09;5050639;28;20267;-74
2022/10/27 07:30:03;;;;;;;18.15;8.63;;;;;;;17.52;52.46;96199.72;5050443;28;20210;-74
2022/10/27 07:32:30;;;;;;;18.50;8.32;;;;;;;18.19;51.01;96201.09;5050745;28;20656;-73
2022/10/27 07:34:56;;;;;;;13.23;8.25;;;;;;;18.73;49.40;96192.59;5051357;28;20202;-73
2022/10/27 07:37:23;;;;;;;17.77;9.25;;;;;;;19.27;48.12;96185.66;5052060;28;20207;-73
2022/10/27 07:39:50;;;;;;;11.48;6.78;;;;;;;19.84;46.45;96186.19;5051047;28;20297;-74
2022/10/27 07:42:18;;;;;;;14.20;7.05;;;;;;;19.19;47.62;96204.06;5051997;28;20280;-74
2022/10/27 07:44:45;;;;;;;10.88;6.63;;;;;;;18.88;49.52;96196.16;5053688;28;20222;-73
2022/10/27 07:47:14;;;;;;;9.48;6.15;;;;;;;19.62;47.05;96197.59;5052124;28;20207;-73
2022/10/27 07:49:41;;;;;;;13.88;7.05;;;;;;;19.16;47.17;96195.66;5053023;28;20205;-73
2022/10/27 07:52:08;;;;;;;8.07;6.50;;;;;;;18.04;50.07;96205.22;5052885;28;20210;-74
2022/10/27 07:54:35;;;;;;;12.38;6.82;;;;;;;18.60;49.69;96206.94;5054166;28;20295;-72
2022/10/27 07:57:02;;;;;;;9.73;5.90;;;;;;;20.00;46.30;96203.38;5055081;28;20198;-73
2022/10/27 07:59:30;;;;;;;8.95;6.10;;;;;;;22.89;40.93;96190.81;5052961;28;20221;-74
2022/10/27 08:01:57;;;;;;;9.77;5.75;;;;;;;26.30;34.19;96179.44;5052492;28;20222;-73
2022/10/27 08:04:24;;;;;;;11.00;5.65;;;;;;;28.22;30.77;96170.63;5055075;28;20283;-73
2022/10/27 08:06:51;;;;;;;8.50;5.38;;;;;;;28.76;29.33;96163.19;5054492;28;20923;-74
2022/10/27 08:09:18;;;;;;;12.02;6.03;;;;;;;28.50;29.35;96166.44;5050832;28;20207;-74
2022/10/27 08:11:44;;;;;;;9.65;5.35;;;;;;;29.51;28.31;96166.13;5053797;28;20242;-74
2022/10/27 08:14:19;;;;;;;13.45;6.00;;;;;;;30.35;26.71;96167.78;5052740;28;20207;-76
2022/10/27 08:16:47;;;;;;;11.85;7.15;;;;;;;32.34;24.86;96168.16;5052975;28;20210;-74
2022/10/27 08:19:15;;;;;;;7.95;7.25;;;;;;;32.07;25.18;96161.25;5055405;28;20934;-75
2022/10/27 08:21:43;;;;;;;9.18;6.43;;;;;;;32.70;23.84;96163.47;5053029;28;20316;-74
2022/10/27 08:24:09;;;;;;;10.73;5.93;;;;;;;32.59;23.79;96166.44;5051939;28;20242;-74
2022/10/27 08:26:36;;;;;;;7.53;5.35;;;;;;;34.07;22.70;96167.16;5051538;28;20745;-73
2022/10/27 08:29:03;;;;;;;13.68;6.03;;;;;;;34.20;21.77;96169.25;5051880;28;20728;-73
2022/10/27 08:31:30;;;;;;;9.32;5.45;;;;;;;33.75;22.88;96165.38;5052385;28;20218;-75
2022/10/27 08:34:00;;;;;;;9.35;5.38;;;;;;;33.18;23.23;96161.09;5052892;28;20275;-73
2022/10/27 08:36:27;;;;;;;5.97;4.60;;;;;;;33.50;22.88;96166.41;5054862;28;20200;-73
2022/10/27 08:38:53;;;;;;;8.05;5.10;;;;;;;34.24;22.01;96172.38;5051519;28;20202;-72
2022/10/27 08:41:25;;;;;;;7.57;4.95;;;;;;;34.83;20.81;96165.72;5050947;28;20206;-74
2022/10/27 08:44:03;;;;;;;10.50;4.32;;;;;;;34.11;21.25;96154.44;5050446;28;20608;-73
2022/10/27 08:46:39;;;;;;;13.55;4.90;;;;;;;35.28;20.70;96161.41;5050357;28;20210;-73
2022/10/27 08:49:23;;;;;;;6.18;4.85;;;;;;;34.48;21.42;96156.44;5050997;28;20306;-73
2022/10/27 08:51:52;;;;;;;7.45;4.90;;;;;;;34.19;21.60;96162.31;5050562;28;20209;-72
2022/10/27 08:54:22;;;;;;;6.32;4.15;;;;;;;33.76;21.81;96156.47;5049464;28;20276;-73
2022/10/27 08:56:49;;;;;;;4.55;3.95;;;;;;;34.29;21.67;96157.69;5049701;28;20212;-72
2022/10/27 08:59:22;;;;;;;7.18;4.18;;;;;;;34.28;21.38;96153.38;5049667;28;20214;-72
2022/10/27 09:01:56;;;;;;;11.23;5.13;;;;;;;34.59;21.29;96152.63;5049411;28;20249;-72
2022/10/27 09:04:43;;;;;;;5.50;4.03;;;;;;;34.22;21.03;96150.59;5049433;28;20746;-73
2022/10/27 09:07:23;;;;;;;7.00;4.78;;;;;;;33.68;21.47;96159.13;5049384;28;20686;-73
2022/10/27 09:09:54;;;;;;;8.05;4.43;;;;;;;32.38;22.86;96148.44;5050145;28;20210;-73
2022/10/27 09:12:58;;;;;;;5.65;4.32;;;;;;;33.02;22.10;96152.22;5050762;28;20259;-72
2022/10/27 09:15:44;;;;;;;7.80;3.92;;;;;;;31.88;23.41;96144.91;5054815;28;20221;-72
2022/10/27 09:18:17;;;;;;;6.65;4.35;;;;;;;32.00;23.49;96154.16;5054304;28;20708;-72
2022/10/27 09:20:47;;;;;;;5.03;3.97;;;;;;;32.40;23.02;96153.56;5053933;28;20606;-73
2022/10/27 09:23:19;;;;;;;6.05;3.53;;;;;;;32.36;23.10;96154.84;5053179;28;20840;-72
2022/10/27 09:25:50;;;;;;;7.07;3.85;;;;;;;32.25;23.23;96150.69;5053757;28;20210;-72
2022/10/27 09:28:20;;;;;;;9.32;3.85;;;;;;;31.59;23.76;96146.00;5054326;28;20210;-72
2022/10/27 09:30:51;;;;;;;7.32;3.38;;;;;;;31.14;23.73;96135.66;5052829;28;20213;-72
2022/10/27 09:33:21;;;;;;;5.50;3.78;;;;;;;30.26;25.15;96142.44;5051912;28;20466;-71
2022/10/27 09:35:51;;;;;;;7.57;4.85;;;;;;;28.35;27.56;96142.47;5052808;28;20214;-71
2022/10/27 09:38:22;;;;;;;5.50;3.97;;;;;;;27.54;28.79;96131.09;5052880;28;20449;-72
2022/10/27 09:40:50;;;;;;;5.03;3.35;;;;;;;26.70;30.05;96138.03;5052525;28;20281;-73
2022/10/27 09:43:20;;;;;;;10.52;4.45;;;;;;;25.20;32.64;96134.94;5052463;28;20237;-74
2022/10/27 09:45:54;;;;;;;5.15;3.25;;;;;;;24.85;32.84;96137.50;5052342;28;20650;-72
2022/10/27 09:48:25;;;;;;;5.03;4.05;;;;;;;24.41;33.56;96143.31;5053358;28;20206;-72
2022/10/27 09:50:59;;;;;;;4.63;4.20;;;;;;;24.21;34.07;96134.31;5054520;28;20206;-73
2022/10/27 09:53:41;;;;;;;13.63;4.35;;;;;;;23.69;34.85;96130.16;5054012;28;20206;-73
2022/10/27 09:56:11;;;;;;;4.97;4.47;;;;;;;23.49;36.24;96130.66;5053554;28;20692;-73
2022/10/27 09:58:56;;;;;;;4.22;3.92;;;;;;;23.22;36.12;96127.31;5053827;28;20210;-73
2022/10/27 10:01:23;;;;;;;3.95;3.25;;;;;;;23.12;36.22;96123.66;5054354;28;20351;-74
2022/10/27 10:03:55;;;;;;;3.78;3.38;;;;;;;22.77;36.52;96126.75;5052795;28;20258;-74
2022/10/27 10:06:33;;;;;;;6.57;3.20;;;;;;;22.71;36.17;96127.19;5052998;28;20201;-73
2022/10/27 10:09:22;;;;;;;5.82;3.47;;;;;;;22.70;36.83;96130.69;5053521;28;20260;-74
2022/10/27 10:11:49;;;;;;;8.18;3.40;;;;;;;23.01;37.17;96125.19;5054022;28;20665;-73
2022/10/27 10:14:23;;;;;;;12.48;3.00;;;;;;;23.34;35.20;96123.88;5053417;28;20287;-74
2022/10/27 10:16:51;;;;;;;4.50;2.67;;;;;;;23.51;34.66;96127.97;5053332;28;20241;-73
2022/10/27 10:19:23;;;;;;;6.05;3.85;;;;;;;23.41;35.14;96123.38;5053815;28;20218;-74
2022/10/27 10:21:53;;;;;;;5.38;3.75;;;;;;;23.28;35.47;96126.88;5053222;28;20202;-73
2022/10/27 10:24:23;;;;;;;3.90;3.60;;;;;;;22.78;35.79;96118.09;5052383;28;20818;-73
2022/10/27 10:26:53;;;;;;;4.05;2.47;;;;;;;22.79;35.73;96118.91;5052094;28;20696;-73
2022/10/27 10:29:28;;;;;;;3.22;2.80;;;;;;;22.97;35.13;96118.56;5053730;28;20209;-74
2022/10/27 10:32:12;;;;;;;3.15;2.90;;;;;;;22.64;35.96;96123.31;5053595;28;20234;-73
2022/10/27 10:34:41;;;;;;;3.78;2.85;;;;;;;22.69;36.72;96116.06;5051842;28;20268;-75
2022/10/27 10:37:32;;;;;;;9.30;3.00;;;;;;;22.90;36.19;96114.72;5053074;28;20207;-71
2022/10/27 10:40:29;;;;;;;6.22;3.33;;;;;;;22.90;35.14;96114.72;5053543;28;20649;-73
2022/10/27 10:43:24;;;;;;;4.30;3.00;;;;;;;22.90;35.21;96108.69;5016103;28;20241;-72
2022/10/27 10:45:52;;;;;;;3.55;2.97;;;;;;;23.10;34.92;96110.78;5051149;28;20293;-72
2022/10/27 10:48:26;;;;;;;4.10;2.90;;;;;;;22.74;34.98;96106.25;5051906;28;20291;-71
2022/10/27 10:50:54;;;;;;;9.70;2.72;;;;;;;22.86;34.22;96099.44;5050428;28;20206;-72
2022/10/27 10:53:33;;;;;;;2.78;2.58;;;;;;;22.99;33.65;96100.31;5051156;28;20198;-73
2022/10/27 10:56:04;;;;;;;2.88;2.67;;;;;;;22.79;33.12;96093.84;5051390;28;20244;-74
2022/10/27 10:58:34;;;;;;;2.50;2.30;;;;;;;22.16;32.46;96094.44;5052151;28;20207;-72
2022/10/27 11:01:03;;;;;;;1.75;1.55;;;;;;;22.09;32.21;96095.72;5052602;28;20680;-72
2022/10/27 11:03:33;;;;;;;2.75;2.15;;;;;;;22.14;32.21;96096.28;5052129;28;20257;-73
2022/10/27 11:06:01;;;;;;;2.55;1.83;;;;;;;22.22;32.28;96094.06;5052568;28;20202;-73
2022/10/27 11:08:38;;;;;;;2.03;1.80;;;;;;;22.40;32.59;96092.88;5051930;28;20295;-74
2022/10/27 11:11:11;;;;;;;8.55;2.35;;;;;;;22.47;32.53;96093.31;5052331;28;20684;-73
2022/10/27 11:13:43;;;;;;;3.90;2.10;;;;;;;22.51;31.89;96084.44;5052419;28;20753;-73
2022/10/27 11:16:12;;;;;;;3.90;1.60;;;;;;;22.38;28.90;96089.53;5052412;28;20210;-73
2022/10/27 11:18:49;;;;;;;2.30;2.20;;;;;;;22.10;30.80;96083.63;5052572;28;20215;-73
2022/10/27 11:21:24;;;;;;;1.48;1.38;;;;;;;21.84;29.63;96072.28;5052171;28;20267;-74
2022/10/27 11:23:56;;;;;;;1.70;1.30;;;;;;;21.98;29.76;96080.03;5052018;28;20230;-75
2022/10/27 11:26:28;;;;;;;4.30;2.13;;;;;;;21.81;30.49;96082.81;5052350;28;20689;-74
2022/10/27 11:29:04;;;;;;;2.42;1.33;;;;;;;21.86;29.27;96078.19;5052057;28;21627;-73
2022/10/27 11:31:38;;;;;;;1.98;1.40;;;;;;;22.25;29.21;96072.31;5052412;28;20680;-72
2022/10/27 11:34:13;;;;;;;1.60;1.50;;;;;;;22.09;28.25;96071.59;5052004;28;20198;-72
2022/10/27 11:36:44;;;;;;;2.13;1.90;;;;;;;22.00;29.32;96066.09;5052215;28;20213;-73
2022/10/27 11:39:19;;;;;;;1.35;1.10;;;;;;;22.17;28.80;96065.03;5050687;28;20699;-74
2022/10/27 11:41:50;;;;;;;1.50;1.40;;;;;;;22.10;29.39;96063.75;5052022;28;20205;-73